createdAt,value
2022-09-14T00:01:56.807Z,100943.50
2022-09-14T00:07:05.922Z,100878.88
2022-09-14T00:09:34.510Z,100990.13
2022-09-14T00:12:01.816Z,100882.25
2022-09-14T01:27:40.924Z,100871.69
2022-09-14T01:30:47.786Z,100917.78
2022-09-14T01:33:32.867Z,100933.38
2022-09-14T01:36:13.742Z,100945.56
2022-09-14T01:38:58.109Z,100946.38
2022-09-14T01:45:04.604Z,100943.16
2022-09-14T01:47:56.248Z,100937.19
2022-09-14T01:50:32.451Z,100935.81
2022-09-14T01:53:13.291Z,100865.31
2022-09-14T01:56:14.885Z,100945.00
2022-09-14T02:02:11.448Z,100890.88
2022-09-14T02:04:53.518Z,100921.97
2022-09-14T02:10:27.188Z,100921.66
2022-09-14T02:13:27.579Z,100869.22
2022-09-14T02:19:03.279Z,100864.75
2022-09-14T02:25:20.227Z,100917.69
2022-09-14T02:28:14.005Z,100723.47
2022-09-14T02:31:38.454Z,100830.41
2022-09-14T02:34:51.537Z,100744.50
2022-09-14T02:38:15.249Z,100898.56
2022-09-14T02:41:12.375Z,100819.13
2022-09-14T02:47:35.681Z,100897.94
2022-09-14T02:53:59.882Z,100902.22
2022-09-14T02:56:47.877Z,100888.03
2022-09-14T02:59:28.601Z,100743.47
2022-09-14T03:02:14.562Z,100716.16
2022-09-14T03:05:14.125Z,100699.66
2022-09-14T03:07:56.924Z,100770.91
2022-09-14T03:10:44.188Z,100860.91
2022-09-14T03:13:49.228Z,100675.44
2022-09-14T03:17:13.610Z,100696.50
2022-09-14T03:20:09.122Z,100864.53
2022-09-14T03:25:32.886Z,100849.28
2022-09-14T03:28:08.560Z,100835.84
2022-09-14T03:30:55.369Z,100737.72
2022-09-14T03:33:38.496Z,100755.03
2022-09-14T03:36:36.809Z,100745.19
2022-09-14T03:39:09.310Z,100850.81
2022-09-14T03:41:42.293Z,100856.75
2022-09-14T03:47:55.288Z,100841.22
2022-09-14T04:04:50.653Z,100724.13
2022-09-14T04:08:08.145Z,100830.25
2022-09-14T04:10:36.206Z,100750.72
2022-09-14T04:13:09.783Z,100825.03
2022-09-14T04:18:45.245Z,100808.91
2022-09-14T04:21:28.790Z,100729.31
2022-09-14T04:27:08.194Z,100798.41
2022-09-14T04:29:42.096Z,100816.38
2022-09-14T04:32:22.707Z,100758.09
2022-09-14T04:34:51.607Z,100752.53
2022-09-14T04:37:36.977Z,100769.94
2022-09-14T04:40:48.134Z,100659.19
2022-09-14T04:46:47.226Z,100802.94
2022-09-14T04:49:37.888Z,100744.19
2022-09-14T05:02:05.936Z,100618.56
2022-09-14T05:19:29.056Z,100789.41
2022-09-14T05:28:29.887Z,100736.22
2022-09-14T05:34:26.334Z,100785.09
2022-09-14T05:37:21.118Z,100641.78
2022-09-14T05:39:54.369Z,100790.44
2022-09-14T05:42:49.858Z,100707.06
2022-09-14T05:45:38.120Z,100733.50
2022-09-14T05:48:18.845Z,100782.97
2022-09-14T05:54:14.839Z,100607.38
2022-09-14T05:56:52.934Z,100765.91
2022-09-14T05:59:34.131Z,100766.91
2022-09-14T06:02:38.327Z,100765.78
2022-09-14T06:05:14.669Z,100777.41
2022-09-14T06:08:06.885Z,100589.72
2022-09-14T06:11:10.467Z,100774.56
2022-09-14T06:16:58.943Z,100763.53
2022-09-14T06:22:42.290Z,100748.28
2022-09-14T06:25:27.763Z,100773.94
2022-09-14T06:28:32.736Z,100672.50
2022-09-14T06:31:22.212Z,100683.75
2022-09-14T06:34:08.621Z,100780.75
2022-09-14T06:36:50.584Z,100765.63
2022-09-14T06:48:26.625Z,100791.81
2022-09-14T06:58:12.506Z,100803.53
2022-09-14T07:00:54.609Z,100641.66
2022-09-14T07:03:37.170Z,100796.59
2022-09-14T07:06:11.359Z,100647.28
2022-09-14T07:08:40.545Z,100648.56
2022-09-14T07:11:09.007Z,100643.19
2022-09-14T07:13:36.098Z,100643.28
2022-09-14T07:16:12.370Z,100753.63
2022-09-14T07:18:52.320Z,100629.31
2022-09-14T07:21:36.869Z,100633.88
2022-09-14T07:24:11.710Z,100741.66
2022-09-14T07:26:43.100Z,100784.53
2022-09-14T07:29:17.008Z,100799.16
2022-09-14T07:31:49.598Z,100805.16
2022-09-14T07:34:20.890Z,100753.47
2022-09-14T07:37:09.506Z,100632.09
2022-09-14T07:39:51.426Z,100638.41
2022-09-14T07:42:23.417Z,100794.91
2022-09-14T07:44:55.814Z,100687.47
2022-09-14T07:47:32.457Z,100689.09
2022-09-14T07:50:00.724Z,100639.69
2022-09-14T07:52:38.492Z,100620.22
2022-09-14T07:55:15.329Z,100630.84
2022-09-14T07:57:55.660Z,100699.81
2022-09-14T08:00:28.074Z,100652.75
2022-09-14T08:03:01.951Z,100644.44
2022-09-14T08:05:34.278Z,100732.50
2022-09-14T08:08:13.258Z,100798.47
2022-09-14T08:10:45.548Z,100640.44
2022-09-14T08:13:35.523Z,100599.78
2022-09-14T08:16:09.646Z,100654.50
2022-09-14T08:18:44.476Z,100627.03
2022-09-14T08:21:18.486Z,100754.75
2022-09-14T08:23:48.339Z,100726.72
2022-09-14T08:26:17.887Z,100672.31
2022-09-14T08:28:47.519Z,100645.72
2022-09-14T08:31:16.234Z,100592.84
2022-09-14T08:33:51.284Z,100622.63
2022-09-14T08:36:26.089Z,100644.84
2022-09-14T08:38:55.949Z,100709.84
2022-09-14T08:41:35.635Z,100609.63
2022-09-14T08:44:14.786Z,100739.00
2022-09-14T08:46:49.571Z,100663.00
2022-09-14T08:49:33.930Z,100717.91
2022-09-14T08:52:03.007Z,100635.69
2022-09-14T08:54:32.180Z,100606.38
2022-09-14T08:57:11.166Z,100741.19
2022-09-14T08:59:50.543Z,100727.97
2022-09-14T09:02:30.858Z,100608.28
2022-09-14T09:05:09.631Z,100721.03
2022-09-14T09:07:46.549Z,100619.69
2022-09-14T09:10:16.920Z,100786.03
2022-09-14T09:12:47.743Z,100673.91
2022-09-14T09:15:21.620Z,100740.13
2022-09-14T09:17:52.977Z,100607.75
2022-09-14T09:20:44.422Z,100628.66
2022-09-14T09:23:28.532Z,100766.78
2022-09-14T09:26:52.983Z,100612.22
2022-09-14T09:28:57.929Z,100601.91
2022-09-14T09:31:33.256Z,100612.13
2022-09-14T09:34:05.872Z,100629.06
2022-09-14T09:36:40.029Z,100743.91
2022-09-14T09:39:21.949Z,100704.72
2022-09-14T09:42:02.803Z,100747.47
2022-09-14T09:45:08.736Z,100596.81
2022-09-14T09:47:43.603Z,100714.59
2022-09-14T09:50:20.683Z,100748.09
2022-09-14T09:52:57.345Z,100744.00
2022-09-14T09:55:43.649Z,100589.69
2022-09-14T09:58:30.075Z,100595.63
2022-09-14T10:01:23.239Z,100690.53
2022-09-14T10:04:36.230Z,100607.34
2022-09-14T10:07:06.132Z,100737.16
2022-09-14T10:09:34.392Z,100667.53
2022-09-14T10:12:18.541Z,100726.44
2022-09-14T10:15:08.368Z,100574.63
2022-09-14T10:17:35.617Z,100645.53
2022-09-14T10:20:36.022Z,100568.59
2022-09-14T10:23:37.244Z,100710.19
2022-09-14T10:26:39.877Z,100705.78
2022-09-14T10:29:42.564Z,100648.59
2022-09-14T10:32:35.253Z,100659.13
2022-09-14T10:41:15.250Z,100666.34
2022-09-14T10:47:47.815Z,100570.91
2022-09-14T10:50:58.224Z,100566.44
2022-09-14T12:12:52.974Z,100671.38
2022-09-14T12:22:50.255Z,100593.63
2022-09-14T12:25:38.574Z,100662.78
2022-09-14T12:32:31.250Z,100669.81
2022-09-14T12:39:46.578Z,100668.13
2022-09-14T12:56:16.485Z,100603.44
2022-09-14T13:23:02.346Z,100500.78
2022-09-14T13:43:17.738Z,100638.69
2022-09-14T14:03:39.580Z,100496.41
2022-09-14T14:06:24.038Z,100529.91
2022-09-14T14:09:17.795Z,100545.84
2022-09-14T14:11:55.645Z,100628.03
2022-09-14T14:14:46.190Z,100523.22
2022-09-14T14:18:18.817Z,100486.88
2022-09-14T14:20:49.387Z,100581.56
2022-09-14T14:27:06.160Z,100546.25
2022-09-14T14:33:06.677Z,100592.69
2022-09-14T14:36:11.476Z,100477.31
2022-09-14T14:54:50.670Z,100577.59
2022-09-14T15:18:38.881Z,100573.34
2022-09-14T15:21:41.714Z,100432.75
2022-09-14T15:31:28.403Z,100479.13
2022-09-14T15:55:06.569Z,100441.41
2022-09-14T16:04:50.150Z,100565.88
2022-09-14T16:24:05.311Z,100554.00
2022-09-14T16:43:45.047Z,100551.44
2022-09-14T17:13:24.159Z,100608.50
2022-09-14T17:35:38.889Z,100461.81
2022-09-14T17:45:06.845Z,100610.16
2022-09-14T17:47:45.103Z,100455.00
2022-09-14T17:50:11.947Z,100619.91
2022-09-14T17:55:36.356Z,100510.06
2022-09-14T17:58:07.767Z,100457.88
2022-09-14T18:00:52.744Z,100617.38
2022-09-14T18:03:38.584Z,100582.72
2022-09-14T18:06:57.507Z,100611.28
2022-09-14T18:10:07.018Z,100479.84
2022-09-14T18:26:32.026Z,100467.16
2022-09-14T18:29:31.198Z,100462.66
2022-09-14T18:43:09.814Z,100639.66
2022-09-14T18:56:02.223Z,100659.00
2022-09-14T18:58:57.085Z,100624.25
2022-09-14T19:01:52.212Z,100625.13
2022-09-14T19:04:21.896Z,100600.66
2022-09-14T19:07:21.008Z,100626.22
2022-09-14T19:10:23.274Z,100556.03
2022-09-14T19:13:00.651Z,100548.75
2022-09-14T19:16:07.178Z,100663.19
2022-09-14T19:18:52.763Z,100546.19
2022-09-14T19:25:19.099Z,100679.34
2022-09-14T19:28:14.820Z,100607.47
2022-09-14T19:34:20.611Z,100603.44
2022-09-14T19:36:53.257Z,100527.16
2022-09-14T19:39:58.047Z,100682.84
2022-09-14T19:43:09.307Z,100492.94
2022-09-14T19:46:22.230Z,100481.50
2022-09-14T19:55:17.067Z,100510.63
2022-09-14T19:58:32.668Z,100497.38
2022-09-14T20:01:31.373Z,100507.66
2022-09-14T20:29:42.851Z,100536.09
2022-09-14T20:35:03.246Z,100659.56
2022-09-14T20:37:42.691Z,100614.63
2022-09-14T20:40:13.937Z,100581.41
2022-09-14T20:42:41.038Z,100642.66
2022-09-14T20:45:14.610Z,100483.75
2022-09-14T20:47:44.090Z,100612.16
2022-09-14T20:50:15.149Z,100532.78
2022-09-14T20:52:53.720Z,100652.19
2022-09-14T20:55:57.500Z,100638.66
2022-09-14T20:58:26.268Z,100587.34
2022-09-14T21:01:05.805Z,100638.31
2022-09-14T21:03:34.559Z,100487.78
2022-09-14T21:06:08.485Z,100558.69
2022-09-14T21:08:37.048Z,100571.19
2022-09-14T21:11:09.985Z,100655.03
2022-09-14T21:13:37.817Z,100510.69
2022-09-14T21:16:10.611Z,100602.19
2022-09-14T21:18:38.136Z,100585.25
2022-09-14T21:21:10.702Z,100518.25
2022-09-14T21:23:38.916Z,100564.97
2022-09-14T21:26:12.139Z,100510.31
2022-09-14T21:28:40.470Z,100562.75
2022-09-14T21:31:09.615Z,100482.09
2022-09-14T21:33:40.028Z,100524.50
2022-09-14T21:36:10.887Z,100517.88
2022-09-14T21:38:39.314Z,100596.84
2022-09-14T21:41:16.124Z,100662.19
2022-09-14T21:43:45.212Z,100658.94
2022-09-14T21:46:12.342Z,100454.22
2022-09-14T21:48:39.511Z,100564.72
2022-09-14T21:51:14.980Z,100630.00
2022-09-14T21:53:45.285Z,100672.97
2022-09-14T21:56:14.317Z,100680.16
2022-09-14T21:58:41.209Z,100566.63
2022-09-14T22:01:12.357Z,100483.13
2022-09-14T22:03:39.474Z,100492.66
2022-09-14T22:06:11.467Z,100590.94
2022-09-14T22:08:38.426Z,100598.88
2022-09-14T22:11:12.469Z,100486.81
2022-09-14T22:13:41.431Z,100631.66
2022-09-14T22:16:09.295Z,100603.94
2022-09-14T22:18:37.041Z,100545.56
2022-09-14T22:21:05.088Z,100592.34
2022-09-14T22:23:34.236Z,100659.88
2022-09-14T22:26:08.931Z,100554.44
2022-09-14T22:28:36.331Z,100622.25
2022-09-14T22:31:04.909Z,100485.97
2022-09-14T22:33:34.262Z,100662.59
2022-09-14T22:36:06.737Z,100668.75
2022-09-14T22:38:39.651Z,100658.66
2022-09-14T22:41:09.188Z,100494.53
2022-09-14T22:43:38.029Z,100639.81
2022-09-14T22:46:09.297Z,100669.47
2022-09-14T22:48:39.417Z,100506.22
2022-09-14T22:51:11.455Z,100643.03
2022-09-14T22:53:42.511Z,100650.59
2022-09-14T22:56:10.967Z,100663.50
2022-09-14T22:58:38.245Z,100540.22
2022-09-14T23:01:10.935Z,100498.69
2022-09-14T23:03:38.505Z,100670.19
2022-09-14T23:06:08.535Z,100576.50
2022-09-14T23:08:36.206Z,100491.31
2022-09-14T23:11:07.494Z,100603.31
2022-09-14T23:13:39.884Z,100597.88
2022-09-14T23:16:13.178Z,100627.09
2022-09-14T23:18:42.877Z,100470.38
2022-09-14T23:21:13.306Z,100674.50
2022-09-14T23:23:40.138Z,100664.25
2022-09-14T23:26:09.455Z,100540.72
2022-09-14T23:28:39.716Z,100543.75
2022-09-14T23:31:07.066Z,100558.06
2022-09-14T23:33:35.403Z,100633.53
2022-09-14T23:36:02.513Z,100526.41
2022-09-14T23:38:29.302Z,100683.06
2022-09-14T23:40:56.338Z,100616.41
2022-09-14T23:43:23.209Z,100681.75
2022-09-14T23:46:00.394Z,100697.50
2022-09-14T23:48:31.058Z,100698.19
2022-09-14T23:51:01.124Z,100581.56
2022-09-14T23:54:07.140Z,100550.91
